Buoy 46762

sailwx.info

Track history (hours):
 
Tides and Currents Weather Stations Pressure Air Temp Water Temp Dewpoint Dewpoint Depression Visibility Wind Speed Wind Dir Waves Ship Positions

Drifting buoy 46762

Last reported at 2015-May-26 23:10 UTC. Time now 2015-May-27 01:53 UTC.
Position N 55°47' W 153°27'.

Barometer 1025.7 mb
Water temperature 7.9 ° C

Date/timePositionNaut miles runAvg speedWind from/ knotsBaromVisibWave heightAir tempDewpointWater temp
2015-May-26 23:10N 55°47' W 153°27'0 0.0 1025.7 7.9
2015-May-26 22:00N 55°47' W 153°27'3 1.6 1025.5 7.8
2015-May-26 20:10N 55°48' W 153°32'0 0.0 1024.8 7.6
2015-May-26 18:10N 55°48' W 153°32'0 0.2 1024.0 7.6
2015-May-26 17:00N 55°48' W 153°33'3 0.7 1023.7 7.5
2015-May-26 12:10N 55°48' W 153°38'0 0.1 1022.2 7.5
2015-May-26 08:00N 55°48' W 153°39'1 0.3 1022.0 7.6
2015-May-26 03:00N 55°49' W 153°41'5 0.6 1021.5 7.8
2015-May-25 19:00N 55°47' W 153°49'2 0.4 1020.4 7.3
2015-May-25 15:10N 55°48' W 153°51'1 0.8 1018.7 7.2
2015-May-25 14:00N 55°48' W 153°53'5 0.5 1018.3 7.2
2015-May-25 04:00N 55°46' W 154°01'0 0.1 1016.5 7.3
2015-May-25 02:10N 55°46' W 154°01'1 1.3 1016.4 7.3
2015-May-25 01:10N 55°46' W 154°03'1 1.2 1016.4 7.3
2015-May-25 00:10N 55°45' W 154°04'3 0.5 1016.7 7.4
2015-May-24 19:00N 55°42' W 154°05'1 0.5 1016.8 7.1
2015-May-24 16:00N 55°43' W 154°07'2 1.9 1017.1 7.1
2015-May-24 15:00N 55°44' W 154°10'2 2.3 1016.9 7.1
2015-May-24 14:10N 55°42' W 154°12'4 0.3 1016.9 7.1
2015-May-24 02:00N 55°40' W 154°18'1 0.7 1014.6 7.1
2015-May-24 00:00N 55°40' W 154°20'2 0.8 1014.7 7.1
2015-May-23 21:10N 55°39' W 154°24'1 0.3 1014.8 7.0
2015-May-23 18:00N 55°38' W 154°25'1 0.9 1014.6 7.0
2015-May-23 17:00N 55°38' W 154°25'3 0.3 1014.7 7.0
2015-May-23 07:10N 55°36' W 154°30'2 2.3 1014.6 7.0
2015-May-23 06:10N 55°35' W 154°33'3 1.1 1013.5 7.0
2015-May-23 03:00N 55°32' W 154°34'0 0.0 1011.8 7.1
2015-May-23 01:00N 55°32' W 154°34'2 0.8 1012.2 7.1
2015-May-22 22:00N 55°29' W 154°35'0 0.0 1014.1 7.1
2015-May-22 21:00N 55°29' W 154°35'4 1.1 1014.7 7.1
2015-May-22 17:00N 55°25' W 154°35'0 0.0 1017.1 7.0
2015-May-22 16:10N 55°25' W 154°35'0 0.4 1017.5 7.0
2015-May-22 15:10N 55°25' W 154°36'1 0.5 1017.5 7.0
2015-May-22 13:00N 55°24' W 154°37'5 2.5 1018.0 7.0
2015-May-22 11:00N 55°20' W 154°31'0 0.0 1018.8 7.0
2015-May-22 10:00N 55°20' W 154°31'3 0.5 1019.1 7.0
2015-May-22 05:00N 55°18' W 154°32'2 1.0 1019.2 7.1
2015-May-22 03:10N 55°17' W 154°30'0 0.0 1018.8 7.1
2015-May-22 02:10N 55°17' W 154°30'2 1.2 1018.9 7.1
2015-May-22 00:10N 55°14' W 154°29'5 0.9 1019.0 7.1
2015-May-21 19:00N 55°11' W 154°23'3 0.5 1018.2 7.0
2015-May-21 14:10N 55°10' W 154°19'1 0.9 1016.1 7.0
2015-May-21 13:10N 55°09' W 154°18'6 0.8 1015.9 7.0
2015-May-21 06:10N 55°06' W 154°11'6 1.2 1014.7 7.0
2015-May-21 01:10N 55°02' W 154°02'0 0.0 1013.7 7.0
2015-May-21 00:00N 55°02' W 154°02'1 1.2 1013.6 7.0
2015-May-20 23:10N 55°03' W 154°00'10 1.4 1013.5 7.0
2015-May-20 16:00N 54°58' W 153°45'0 0.0 1013.0 7.0
2015-May-20 12:00N 54°58' W 153°45'6 1.1 1014.4 7.0
2015-May-20 07:00N 54°57' W 153°35'2 0.9 1016.7 7.0
2015-May-20 04:10N 54°56' W 153°31'4 3.4 1017.5 7.1
2015-May-20 03:00N 54°59' W 153°26'0 0.0 1018.1 7.1
2015-May-20 02:00N 54°59' W 153°26'8 1.1 1018.2 7.1
2015-May-19 18:10N 54°55' W 153°13'3 1.4 1019.4 6.9
2015-May-19 16:10N 54°56' W 153°09'2 2.0 1019.1 6.9
2015-May-19 15:10N 54°58' W 153°11'8 2.0 1019.1 6.9
2015-May-19 11:10N 54°58' W 152°57'1 0.3 1018.5 6.9
2015-May-19 09:00N 54°58' W 152°56'1 0.5 1018.2 6.9
2015-May-19 06:00N 54°58' W 152°54'2 1.3 1018.3 6.9
2015-May-19 04:10N 54°59' W 152°50'4 1.9 1018.3 6.9
2015-May-19 02:00N 55°00' W 152°43'0 0.0 1018.5 6.9
2015-May-19 01:00N 55°00' W 152°43'4 4.3 1018.7 6.9
2015-May-19 00:10N 55°03' W 152°38'0 0.0 1019.3 6.9
2015-May-18 23:00N 55°03' W 152°38'3 1.1 1019.4 6.9
2015-May-18 20:10N 55°03' W 152°33'0 0.0 1019.4 6.8
2015-May-18 19:00N 55°03' W 152°33'0 0.0 1019.4 6.8
2015-May-18 18:00N 55°03' W 152°33'2 2.2 1019.5 6.8
2015-May-18 17:00N 55°05' W 152°31'0 0.0 1019.6 6.8
2015-May-18 16:00N 55°05' W 152°31'0 0.2 1019.6 6.8
2015-May-18 15:00N 55°05' W 152°31'1 1.5 1019.7 6.8
2015-May-18 14:00N 55°06' W 152°28'1 1.4 1019.7 6.8
2015-May-18 13:10N 55°05' W 152°26'2 0.9 1019.6 6.8
2015-May-18 11:00N 55°07' W 152°26'6 1.5 1019.5 6.8
2015-May-18 07:00N 55°11' W 152°19'0 0.0 1020.1 6.8
2015-May-18 06:00N 55°11' W 152°19'3 3.9 1020.1 6.8
2015-May-18 05:10N 55°15' W 152°18'0 0.0 1020.1 6.8
2015-May-18 04:00N 55°15' W 152°18'0 0.0 1020.3 6.8
2015-May-18 02:10N 55°15' W 152°18'1 1.4 1020.7 6.8
2015-May-18 01:10N 55°15' W 152°16'0 0.0 1020.8 6.8
2015-May-18 00:00N 55°15' W 152°16'4 3.7 1020.7 6.9
2015-May-17 23:00N 55°19' W 152°16'0 0.0 1020.6 6.8
2015-May-17 22:10N 55°19' W 152°16'0 0.0 1020.6 6.8
2015-May-17 21:10N 55°19' W 152°16'0 0.0 1020.7 6.8
2015-May-17 20:00N 55°19' W 152°16'3 2.6 1020.5 6.8
2015-May-17 19:00N 55°21' W 152°13'1 0.8 1020.7 6.8
2015-May-17 17:10N 55°22' W 152°14'3 0.8 1021.1 6.8
2015-May-17 13:00N 55°26' W 152°15'3 3.2 1021.0 6.9
2015-May-17 12:00N 55°29' W 152°17'6 0.5 1021.0 6.9
2015-May-17 01:00N 55°34' W 152°21'2 1.9 1022.2 7.0
2015-May-17 00:00N 55°36' W 152°24'   1022.3 7.0
Track history (hours):
 
Tides and Currents Weather Stations Pressure Air Temp Water Temp Dewpoint Dewpoint Depression Visibility Wind Speed Wind Dir Waves Ship Positions

Drifting buoy 46762

Last reported at 2015-May-26 23:10 UTC. Time now 2015-May-27 01:53 UTC.
Position N 55°47' W 153°27'.

Barometer 1025.7 mb
Water temperature 7.9 ° C

Date/timePositionNaut miles runAvg speedWind from/ knotsBaromVisibWave heightAir tempDewpointWater temp
2015-May-26 23:10N 55°47' W 153°27'0 0.0 1025.7 7.9
2015-May-26 22:00N 55°47' W 153°27'3 1.6 1025.5 7.8
2015-May-26 20:10N 55°48' W 153°32'0 0.0 1024.8 7.6
2015-May-26 18:10N 55°48' W 153°32'0 0.2 1024.0 7.6
2015-May-26 17:00N 55°48' W 153°33'3 0.7 1023.7 7.5
2015-May-26 12:10N 55°48' W 153°38'0 0.1 1022.2 7.5
2015-May-26 08:00N 55°48' W 153°39'1 0.3 1022.0 7.6
2015-May-26 03:00N 55°49' W 153°41'5 0.6 1021.5 7.8
2015-May-25 19:00N 55°47' W 153°49'2 0.4 1020.4 7.3
2015-May-25 15:10N 55°48' W 153°51'1 0.8 1018.7 7.2
2015-May-25 14:00N 55°48' W 153°53'5 0.5 1018.3 7.2
2015-May-25 04:00N 55°46' W 154°01'0 0.1 1016.5 7.3
2015-May-25 02:10N 55°46' W 154°01'1 1.3 1016.4 7.3
2015-May-25 01:10N 55°46' W 154°03'1 1.2 1016.4 7.3
2015-May-25 00:10N 55°45' W 154°04'3 0.5 1016.7 7.4
2015-May-24 19:00N 55°42' W 154°05'1 0.5 1016.8 7.1
2015-May-24 16:00N 55°43' W 154°07'2 1.9 1017.1 7.1
2015-May-24 15:00N 55°44' W 154°10'2 2.3 1016.9 7.1
2015-May-24 14:10N 55°42' W 154°12'4 0.3 1016.9 7.1
2015-May-24 02:00N 55°40' W 154°18'1 0.7 1014.6 7.1
2015-May-24 00:00N 55°40' W 154°20'2 0.8 1014.7 7.1
2015-May-23 21:10N 55°39' W 154°24'1 0.3 1014.8 7.0
2015-May-23 18:00N 55°38' W 154°25'1 0.9 1014.6 7.0
2015-May-23 17:00N 55°38' W 154°25'3 0.3 1014.7 7.0
2015-May-23 07:10N 55°36' W 154°30'2 2.3 1014.6 7.0
2015-May-23 06:10N 55°35' W 154°33'3 1.1 1013.5 7.0
2015-May-23 03:00N 55°32' W 154°34'0 0.0 1011.8 7.1
2015-May-23 01:00N 55°32' W 154°34'2 0.8 1012.2 7.1
2015-May-22 22:00N 55°29' W 154°35'0 0.0 1014.1 7.1
2015-May-22 21:00N 55°29' W 154°35'4 1.1 1014.7 7.1
2015-May-22 17:00N 55°25' W 154°35'0 0.0 1017.1 7.0
2015-May-22 16:10N 55°25' W 154°35'0 0.4 1017.5 7.0
2015-May-22 15:10N 55°25' W 154°36'1 0.5 1017.5 7.0
2015-May-22 13:00N 55°24' W 154°37'5 2.5 1018.0 7.0
2015-May-22 11:00N 55°20' W 154°31'0 0.0 1018.8 7.0
2015-May-22 10:00N 55°20' W 154°31'3 0.5 1019.1 7.0
2015-May-22 05:00N 55°18' W 154°32'2 1.0 1019.2 7.1
2015-May-22 03:10N 55°17' W 154°30'0 0.0 1018.8 7.1
2015-May-22 02:10N 55°17' W 154°30'2 1.2 1018.9 7.1
2015-May-22 00:10N 55°14' W 154°29'5 0.9 1019.0 7.1
2015-May-21 19:00N 55°11' W 154°23'3 0.5 1018.2 7.0
2015-May-21 14:10N 55°10' W 154°19'1 0.9 1016.1 7.0
2015-May-21 13:10N 55°09' W 154°18'6 0.8 1015.9 7.0
2015-May-21 06:10N 55°06' W 154°11'6 1.2 1014.7 7.0
2015-May-21 01:10N 55°02' W 154°02'0 0.0 1013.7 7.0
2015-May-21 00:00N 55°02' W 154°02'1 1.2 1013.6 7.0
2015-May-20 23:10N 55°03' W 154°00'10 1.4 1013.5 7.0
2015-May-20 16:00N 54°58' W 153°45'0 0.0 1013.0 7.0
2015-May-20 12:00N 54°58' W 153°45'6 1.1 1014.4 7.0
2015-May-20 07:00N 54°57' W 153°35'2 0.9 1016.7 7.0
2015-May-20 04:10N 54°56' W 153°31'4 3.4 1017.5 7.1
2015-May-20 03:00N 54°59' W 153°26'0 0.0 1018.1 7.1
2015-May-20 02:00N 54°59' W 153°26'8 1.1 1018.2 7.1
2015-May-19 18:10N 54°55' W 153°13'3 1.4 1019.4 6.9
2015-May-19 16:10N 54°56' W 153°09'2 2.0 1019.1 6.9
2015-May-19 15:10N 54°58' W 153°11'8 2.0 1019.1 6.9
2015-May-19 11:10N 54°58' W 152°57'1 0.3 1018.5 6.9
2015-May-19 09:00N 54°58' W 152°56'1 0.5 1018.2 6.9
2015-May-19 06:00N 54°58' W 152°54'2 1.3 1018.3 6.9
2015-May-19 04:10N 54°59' W 152°50'4 1.9 1018.3 6.9
2015-May-19 02:00N 55°00' W 152°43'0 0.0 1018.5 6.9
2015-May-19 01:00N 55°00' W 152°43'4 4.3 1018.7 6.9
2015-May-19 00:10N 55°03' W 152°38'0 0.0 1019.3 6.9
2015-May-18 23:00N 55°03' W 152°38'3 1.1 1019.4 6.9
2015-May-18 20:10N 55°03' W 152°33'0 0.0 1019.4 6.8
2015-May-18 19:00N 55°03' W 152°33'0 0.0 1019.4 6.8
2015-May-18 18:00N 55°03' W 152°33'2 2.2 1019.5 6.8
2015-May-18 17:00N 55°05' W 152°31'0 0.0 1019.6 6.8
2015-May-18 16:00N 55°05' W 152°31'0 0.2 1019.6 6.8
2015-May-18 15:00N 55°05' W 152°31'1 1.5 1019.7 6.8
2015-May-18 14:00N 55°06' W 152°28'1 1.4 1019.7 6.8
2015-May-18 13:10N 55°05' W 152°26'2 0.9 1019.6 6.8
2015-May-18 11:00N 55°07' W 152°26'6 1.5 1019.5 6.8
2015-May-18 07:00N 55°11' W 152°19'0 0.0 1020.1 6.8
2015-May-18 06:00N 55°11' W 152°19'3 3.9 1020.1 6.8
2015-May-18 05:10N 55°15' W 152°18'0 0.0 1020.1 6.8
2015-May-18 04:00N 55°15' W 152°18'0 0.0 1020.3 6.8
2015-May-18 02:10N 55°15' W 152°18'1 1.4 1020.7 6.8
2015-May-18 01:10N 55°15' W 152°16'0 0.0 1020.8 6.8
2015-May-18 00:00N 55°15' W 152°16'4 3.7 1020.7 6.9
2015-May-17 23:00N 55°19' W 152°16'0 0.0 1020.6 6.8
2015-May-17 22:10N 55°19' W 152°16'0 0.0 1020.6 6.8
2015-May-17 21:10N 55°19' W 152°16'0 0.0 1020.7 6.8
2015-May-17 20:00N 55°19' W 152°16'3 2.6 1020.5 6.8
2015-May-17 19:00N 55°21' W 152°13'1 0.8 1020.7 6.8
2015-May-17 17:10N 55°22' W 152°14'3 0.8 1021.1 6.8
2015-May-17 13:00N 55°26' W 152°15'3 3.2 1021.0 6.9
2015-May-17 12:00N 55°29' W 152°17'6 0.5 1021.0 6.9
2015-May-17 01:00N 55°34' W 152°21'2 1.9 1022.2 7.0
2015-May-17 00:00N 55°36' W 152°24'   1022.3 7.0

Dump ship's entire track history